»·PEaware :: RNGR709 KNGP-KNGP

RNGR709 :: KNGP-KNGP

FLIGHT INFORMATION

Flight Status: Arrived
Operator: Unknown
More flights by this operator :: More flights under this callsign
Pilot: USN Avenger (31125)
Aircraft: BEECH AIRCRAFT T-6A TEXAN
(TEX2)
More flights by this aircraft type
Origin: KNGP Corpus Christi NAS/Truax
United States
Destination: KNGP Corpus Christi NAS/Truax
United States
More flights between these airports :: More routes between these airports
Route: MUSTANG KRKP
File this flight plan on PilotEdge
Remarks: 18 T / O 13 LAND
Altitude:
(Current/Filed)
5,500ft
Speed:
(Current/Filed)
240kts
Departed: 14-Nov-23 09:06 AM
Arrived: 14-Nov-23 09:53 AM
Distance/Time
Traveled:
1nm/0:46
Distance/Time
To Go:
Arrived

Flight Plot

Page will automatically refresh every two minutes.

Flight plan parsing failed; only flown route is shown


Map Options




Map Legend


Flown Route
Filed Route
Departure Airport
Arrival Airport
Navaid (VOR, NDB)
Fix

Horizontal Profiles

Position Reports

Time Latitude Longitude Heading Altitude Ground
Speed
14-Nov-23 08:58 27.698537 -97.284284 159 22ft 0kts
14-Nov-23 08:59 27.698536 -97.284284 159 22ft 0kts
14-Nov-23 09:00 27.698534 -97.284283 159 22ft 0kts
14-Nov-23 09:02 27.698533 -97.284282 159 22ft 0kts
14-Nov-23 09:03 27.698333 -97.285502 336 22ft 10kts
14-Nov-23 09:04 27.697641 -97.288525 225 22ft 22kts
14-Nov-23 09:05 27.695809 -97.290946 227 22ft 6kts
14-Nov-23 09:06 27.693233 -97.289576 138 23ft 79kts
14-Nov-23 09:07 27.665414 -97.250409 127 703ft 205kts
14-Nov-23 09:08 27.643391 -97.190681 107 2358ft 200kts
14-Nov-23 09:09 27.669048 -97.143092 35 4765ft 202kts
14-Nov-23 09:10 27.718942 -97.101784 34 5537ft 251kts
14-Nov-23 09:11 27.776171 -97.057785 35 5621ft 251kts
14-Nov-23 09:12 27.833515 -97.011837 30 5574ft 251kts
14-Nov-23 09:13 27.891740 -96.968863 34 5634ft 252kts
14-Nov-23 09:14 27.947231 -96.919647 42 5590ft 252kts
14-Nov-23 09:15 27.992695 -96.874379 35 8293ft 205kts
14-Nov-23 09:16 28.041992 -96.841518 18 10519ft 208kts
14-Nov-23 09:17 28.038225 -96.868857 184 10694ft 232kts
14-Nov-23 09:18 28.052065 -96.864045 358 9956ft 242kts
14-Nov-23 09:19 28.099368 -96.878156 261 6215ft 192kts
14-Nov-23 09:20 28.059791 -96.919359 230 3743ft 194kts
14-Nov-23 09:21 28.072293 -96.962730 320 1992ft 151kts
14-Nov-23 09:22 28.108048 -97.002257 319 1192ft 196kts
14-Nov-23 09:23 28.100313 -97.037913 197 1050ft 194kts
14-Nov-23 09:24 28.074694 -97.060312 353 946ft 131kts
14-Nov-23 09:25 28.103910 -97.042493 106 385ft 122kts
14-Nov-23 09:26 28.072497 -97.042673 192 513ft 133kts
14-Nov-23 09:27 28.076808 -97.056002 18 704ft 127kts
14-Nov-23 09:28 28.103165 -97.039865 114 506ft 111kts
14-Nov-23 09:29 28.078643 -97.041043 187 265ft 113kts
14-Nov-23 09:29 28.060059 -97.053674 288 847ft 118kts
14-Nov-23 09:31 28.099247 -97.051069 24 716ft 135kts
14-Nov-23 09:32 28.086285 -97.039884 195 28ft 76kts
14-Nov-23 09:33 28.055054 -97.047362 202 659ft 118kts
14-Nov-23 09:34 28.059383 -97.061097 20 760ft 138kts
14-Nov-23 09:34 28.090119 -97.052921 7 704ft 134kts
14-Nov-23 09:35 28.091235 -97.038973 194 86ft 111kts
14-Nov-23 09:36 28.062806 -97.048368 259 765ft 111kts
14-Nov-23 09:38 28.100880 -97.048406 11 662ft 153kts
14-Nov-23 09:39 28.124413 -97.011344 130 1578ft 211kts
14-Nov-23 09:39 28.079887 -97.005337 187 1545ft 202kts
14-Nov-23 09:40 28.024407 -97.011547 195 1543ft 200kts
14-Nov-23 09:41 27.975836 -97.038681 221 1324ft 196kts
14-Nov-23 09:42 27.936148 -97.080543 221 949ft 199kts
14-Nov-23 09:43 27.902455 -97.125855 228 1066ft 194kts
14-Nov-23 09:44 27.858166 -97.159702 212 1143ft 191kts
14-Nov-23 09:45 27.802986 -97.165719 177 1131ft 222kts
14-Nov-23 09:46 27.745449 -97.179412 229 1028ft 211kts
14-Nov-23 09:47 27.733622 -97.240945 257 1004ft 204kts
14-Nov-23 09:48 27.720850 -97.299700 243 1077ft 189kts
14-Nov-23 09:49 27.683812 -97.271772 108 1107ft 186kts
14-Nov-23 09:50 27.706443 -97.277359 309 834ft 113kts
14-Nov-23 09:51 27.698744 -97.294517 166 238ft 102kts
14-Nov-23 09:52 27.687499 -97.281670 55 22ft 13kts

Navigation Log

Ident Type
Flight plan parsing failed, navigation log unavailable